sensor_id;sensor_type;location;lat;lon;timestamp;pressure;altitude;pressure_sealevel;temperature;humidity
49645;BME280;36494;50.730;-1.932;2023-02-21T00:01:47;101738.56;;;8.86;100.00
49645;BME280;36494;50.730;-1.932;2023-02-21T00:04:12;101737.79;;;8.86;100.00
49645;BME280;36494;50.730;-1.932;2023-02-21T00:06:38;101737.60;;;8.86;100.00
49645;BME280;36494;50.730;-1.932;2023-02-21T00:09:03;101737.60;;;8.83;100.00
49645;BME280;36494;50.730;-1.932;2023-02-21T00:11:29;101733.47;;;8.83;100.00
49645;BME280;36494;50.730;-1.932;2023-02-21T00:13:54;101735.94;;;8.82;100.00
49645;BME280;36494;50.730;-1.932;2023-02-21T00:16:20;101734.55;;;8.83;100.00
49645;BME280;36494;50.730;-1.932;2023-02-21T00:18:46;101732.11;;;8.84;100.00
49645;BME280;36494;50.730;-1.932;2023-02-21T00:21:11;101725.88;;;8.84;100.00
49645;BME280;36494;50.730;-1.932;2023-02-21T00:23:37;101723.66;;;8.81;100.00
49645;BME280;36494;50.730;-1.932;2023-02-21T00:26:02;101722.78;;;8.83;100.00
49645;BME280;36494;50.730;-1.932;2023-02-21T00:28:27;101718.23;;;8.82;100.00
49645;BME280;36494;50.730;-1.932;2023-02-21T00:30:52;101713.84;;;8.81;100.00
49645;BME280;36494;50.730;-1.932;2023-02-21T00:33:17;101715.24;;;8.81;100.00
49645;BME280;36494;50.730;-1.932;2023-02-21T00:35:42;101712.59;;;8.78;100.00
49645;BME280;36494;50.730;-1.932;2023-02-21T00:38:08;101712.14;;;8.80;100.00
49645;BME280;36494;50.730;-1.932;2023-02-21T00:40:32;101711.86;;;8.77;100.00
49645;BME280;36494;50.730;-1.932;2023-02-21T00:42:57;101707.53;;;8.79;100.00
49645;BME280;36494;50.730;-1.932;2023-02-21T00:45:22;101704.27;;;8.77;100.00
49645;BME280;36494;50.730;-1.932;2023-02-21T00:47:48;101701.92;;;8.78;100.00
49645;BME280;36494;50.730;-1.932;2023-02-21T00:50:13;101703.45;;;8.77;100.00
49645;BME280;36494;50.730;-1.932;2023-02-21T00:52:39;101701.54;;;8.80;100.00
49645;BME280;36494;50.730;-1.932;2023-02-21T00:55:04;101696.07;;;8.80;100.00
49645;BME280;36494;50.730;-1.932;2023-02-21T00:57:29;101690.50;;;8.78;100.00
49645;BME280;36494;50.730;-1.932;2023-02-21T00:59:55;101688.04;;;8.81;100.00
49645;BME280;36494;50.730;-1.932;2023-02-21T01:02:20;101687.90;;;8.84;100.00
49645;BME280;36494;50.730;-1.932;2023-02-21T01:04:46;101685.09;;;8.82;100.00
49645;BME280;36494;50.730;-1.932;2023-02-21T01:07:11;101683.92;;;8.83;100.00
49645;BME280;36494;50.730;-1.932;2023-02-21T01:09:36;101676.10;;;8.79;100.00
49645;BME280;36494;50.730;-1.932;2023-02-21T01:12:02;101671.63;;;8.81;100.00
49645;BME280;36494;50.730;-1.932;2023-02-21T01:14:27;101667.76;;;8.84;100.00
49645;BME280;36494;50.730;-1.932;2023-02-21T01:16:52;101664.48;;;8.82;100.00
49645;BME280;36494;50.730;-1.932;2023-02-21T01:19:17;101659.08;;;8.85;100.00
49645;BME280;36494;50.730;-1.932;2023-02-21T01:21:42;101657.67;;;8.86;100.00
49645;BME280;36494;50.730;-1.932;2023-02-21T01:24:12;101656.34;;;8.85;100.00
49645;BME280;36494;50.730;-1.932;2023-02-21T01:26:33;101653.89;;;8.85;100.00
49645;BME280;36494;50.730;-1.932;2023-02-21T01:28:59;101652.37;;;8.86;100.00
49645;BME280;36494;50.730;-1.932;2023-02-21T01:31:23;101649.98;;;8.82;100.00
49645;BME280;36494;50.730;-1.932;2023-02-21T01:33:49;101648.29;;;8.84;100.00
49645;BME280;36494;50.730;-1.932;2023-02-21T01:36:15;101644.32;;;8.84;100.00
49645;BME280;36494;50.730;-1.932;2023-02-21T01:38:40;101643.73;;;8.84;100.00
49645;BME280;36494;50.730;-1.932;2023-02-21T01:41:05;101639.61;;;8.85;100.00
49645;BME280;36494;50.730;-1.932;2023-02-21T01:43:31;101635.85;;;8.86;100.00
49645;BME280;36494;50.730;-1.932;2023-02-21T01:45:56;101632.26;;;8.85;100.00
49645;BME280;36494;50.730;-1.932;2023-02-21T01:48:23;101627.90;;;8.84;100.00
49645;BME280;36494;50.730;-1.932;2023-02-21T01:50:47;101628.47;;;8.83;100.00
49645;BME280;36494;50.730;-1.932;2023-02-21T01:53:19;101629.77;;;8.85;100.00
49645;BME280;36494;50.730;-1.932;2023-02-21T01:55:39;101629.14;;;8.84;100.00
49645;BME280;36494;50.730;-1.932;2023-02-21T01:58:03;101630.32;;;8.85;100.00
49645;BME280;36494;50.730;-1.932;2023-02-21T02:00:29;101633.31;;;8.85;100.00
49645;BME280;36494;50.730;-1.932;2023-02-21T02:02:56;101637.10;;;8.81;100.00
49645;BME280;36494;50.730;-1.932;2023-02-21T02:05:19;101635.33;;;8.81;100.00
49645;BME280;36494;50.730;-1.932;2023-02-21T02:07:44;101633.09;;;8.83;100.00
49645;BME280;36494;50.730;-1.932;2023-02-21T02:10:10;101632.20;;;8.79;100.00
49645;BME280;36494;50.730;-1.932;2023-02-21T02:12:48;101626.33;;;8.78;100.00
49645;BME280;36494;50.730;-1.932;2023-02-21T02:15:13;101626.07;;;8.78;100.00
49645;BME280;36494;50.730;-1.932;2023-02-21T02:17:34;101625.02;;;8.79;100.00
49645;BME280;36494;50.730;-1.932;2023-02-21T02:22:34;101616.92;;;8.79;100.00
49645;BME280;36494;50.730;-1.932;2023-02-21T02:24:54;101615.76;;;8.75;100.00
49645;BME280;36494;50.730;-1.932;2023-02-21T02:27:20;101613.30;;;8.75;100.00
49645;BME280;36494;50.730;-1.932;2023-02-21T02:29:49;101613.34;;;8.75;100.00
49645;BME280;36494;50.730;-1.932;2023-02-21T02:32:11;101612.15;;;8.70;100.00
49645;BME280;36494;50.730;-1.932;2023-02-21T02:36:51;101604.55;;;8.70;100.00
49645;BME280;36494;50.730;-1.932;2023-02-21T02:39:20;101602.01;;;8.71;100.00
49645;BME280;36494;50.730;-1.932;2023-02-21T02:41:46;101595.00;;;8.72;100.00
49645;BME280;36494;50.730;-1.932;2023-02-21T02:44:08;101590.20;;;8.73;100.00
49645;BME280;36494;50.730;-1.932;2023-02-21T02:46:30;101585.59;;;8.72;100.00
49645;BME280;36494;50.730;-1.932;2023-02-21T02:48:57;101584.24;;;8.72;100.00
49645;BME280;36494;50.730;-1.932;2023-02-21T02:51:20;101582.11;;;8.72;100.00
49645;BME280;36494;50.730;-1.932;2023-02-21T02:53:45;101580.12;;;8.71;100.00
49645;BME280;36494;50.730;-1.932;2023-02-21T02:56:12;101578.27;;;8.73;100.00
49645;BME280;36494;50.730;-1.932;2023-02-21T02:58:39;101576.53;;;8.71;100.00
49645;BME280;36494;50.730;-1.932;2023-02-21T03:01:13;101574.75;;;8.69;100.00
49645;BME280;36494;50.730;-1.932;2023-02-21T03:03:38;101573.21;;;8.71;100.00
49645;BME280;36494;50.730;-1.932;2023-02-21T03:06:02;101569.05;;;8.72;100.00
49645;BME280;36494;50.730;-1.932;2023-02-21T03:08:22;101561.67;;;8.72;100.00
49645;BME280;36494;50.730;-1.932;2023-02-21T03:10:45;101558.34;;;8.74;100.00
49645;BME280;36494;50.730;-1.932;2023-02-21T03:13:12;101555.75;;;8.74;100.00
49645;BME280;36494;50.730;-1.932;2023-02-21T03:15:35;101553.67;;;8.74;100.00
49645;BME280;36494;50.730;-1.932;2023-02-21T03:18:02;101549.13;;;8.73;100.00
49645;BME280;36494;50.730;-1.932;2023-02-21T03:20:23;101546.83;;;8.72;100.00
49645;BME280;36494;50.730;-1.932;2023-02-21T03:22:50;101545.39;;;8.69;100.00
49645;BME280;36494;50.730;-1.932;2023-02-21T03:25:14;101540.90;;;8.69;100.00
49645;BME280;36494;50.730;-1.932;2023-02-21T03:27:39;101539.52;;;8.69;100.00
49645;BME280;36494;50.730;-1.932;2023-02-21T03:30:05;101548.57;;;8.71;100.00
49645;BME280;36494;50.730;-1.932;2023-02-21T03:32:31;101548.17;;;8.71;100.00
49645;BME280;36494;50.730;-1.932;2023-02-21T03:34:55;101545.62;;;8.71;100.00
49645;BME280;36494;50.730;-1.932;2023-02-21T03:37:27;101540.39;;;8.71;100.00
49645;BME280;36494;50.730;-1.932;2023-02-21T03:39:45;101537.57;;;8.72;100.00
49645;BME280;36494;50.730;-1.932;2023-02-21T03:42:11;101535.13;;;8.71;100.00
49645;BME280;36494;50.730;-1.932;2023-02-21T03:44:36;101529.46;;;8.66;100.00
49645;BME280;36494;50.730;-1.932;2023-02-21T03:47:01;101528.29;;;8.63;100.00
49645;BME280;36494;50.730;-1.932;2023-02-21T03:49:27;101529.03;;;8.59;100.00
49645;BME280;36494;50.730;-1.932;2023-02-21T03:51:52;101526.07;;;8.59;100.00
49645;BME280;36494;50.730;-1.932;2023-02-21T03:54:18;101522.89;;;8.59;100.00
49645;BME280;36494;50.730;-1.932;2023-02-21T03:56:43;101515.24;;;8.56;100.00
49645;BME280;36494;50.730;-1.932;2023-02-21T03:59:08;101512.64;;;8.58;100.00
49645;BME280;36494;50.730;-1.932;2023-02-21T04:01:34;101510.81;;;8.57;100.00
49645;BME280;36494;50.730;-1.932;2023-02-21T04:03:59;101509.53;;;8.55;100.00
49645;BME280;36494;50.730;-1.932;2023-02-21T04:06:25;101510.49;;;8.54;100.00
49645;BME280;36494;50.730;-1.932;2023-02-21T04:08:50;101509.94;;;8.52;100.00
49645;BME280;36494;50.730;-1.932;2023-02-21T04:11:15;101503.74;;;8.51;100.00
49645;BME280;36494;50.730;-1.932;2023-02-21T04:13:41;101499.31;;;8.54;100.00
49645;BME280;36494;50.730;-1.932;2023-02-21T04:16:06;101496.55;;;8.54;100.00
49645;BME280;36494;50.730;-1.932;2023-02-21T04:18:31;101496.53;;;8.55;100.00
49645;BME280;36494;50.730;-1.932;2023-02-21T04:20:57;101498.70;;;8.53;100.00
49645;BME280;36494;50.730;-1.932;2023-02-21T04:23:22;101499.83;;;8.53;100.00
49645;BME280;36494;50.730;-1.932;2023-02-21T04:25:48;101497.34;;;8.54;100.00
49645;BME280;36494;50.730;-1.932;2023-02-21T04:28:13;101494.93;;;8.52;100.00
49645;BME280;36494;50.730;-1.932;2023-02-21T04:30:39;101492.69;;;8.52;100.00
49645;BME280;36494;50.730;-1.932;2023-02-21T04:33:04;101494.17;;;8.54;100.00
49645;BME280;36494;50.730;-1.932;2023-02-21T04:35:30;101495.93;;;8.52;100.00
49645;BME280;36494;50.730;-1.932;2023-02-21T04:37:55;101497.75;;;8.53;100.00
49645;BME280;36494;50.730;-1.932;2023-02-21T04:40:21;101498.63;;;8.53;100.00
49645;BME280;36494;50.730;-1.932;2023-02-21T04:42:46;101496.54;;;8.53;100.00
49645;BME280;36494;50.730;-1.932;2023-02-21T04:45:12;101492.03;;;8.53;100.00
49645;BME280;36494;50.730;-1.932;2023-02-21T04:47:37;101491.23;;;8.48;100.00
49645;BME280;36494;50.730;-1.932;2023-02-21T04:50:03;101489.79;;;8.40;100.00
49645;BME280;36494;50.730;-1.932;2023-02-21T04:52:28;101489.89;;;8.46;100.00
49645;BME280;36494;50.730;-1.932;2023-02-21T04:54:54;101487.63;;;8.46;100.00
49645;BME280;36494;50.730;-1.932;2023-02-21T04:57:19;101485.31;;;8.44;100.00
49645;BME280;36494;50.730;-1.932;2023-02-21T04:59:45;101484.46;;;8.44;100.00
49645;BME280;36494;50.730;-1.932;2023-02-21T05:02:10;101484.83;;;8.46;100.00
49645;BME280;36494;50.730;-1.932;2023-02-21T05:04:36;101481.65;;;8.42;100.00
49645;BME280;36494;50.730;-1.932;2023-02-21T05:07:01;101481.08;;;8.41;100.00
49645;BME280;36494;50.730;-1.932;2023-02-21T05:09:27;101479.14;;;8.40;100.00
49645;BME280;36494;50.730;-1.932;2023-02-21T05:11:51;101476.47;;;8.41;100.00
49645;BME280;36494;50.730;-1.932;2023-02-21T05:14:17;101476.59;;;8.38;100.00
49645;BME280;36494;50.730;-1.932;2023-02-21T05:16:42;101476.69;;;8.38;100.00
49645;BME280;36494;50.730;-1.932;2023-02-21T05:19:07;101474.54;;;8.32;100.00
49645;BME280;36494;50.730;-1.932;2023-02-21T05:21:34;101473.73;;;8.35;100.00
49645;BME280;36494;50.730;-1.932;2023-02-21T05:23:58;101471.22;;;8.32;100.00
49645;BME280;36494;50.730;-1.932;2023-02-21T05:26:25;101469.60;;;8.28;100.00
49645;BME280;36494;50.730;-1.932;2023-02-21T05:28:49;101467.98;;;8.25;100.00
49645;BME280;36494;50.730;-1.932;2023-02-21T05:31:14;101467.24;;;8.21;100.00
49645;BME280;36494;50.730;-1.932;2023-02-21T05:33:39;101463.06;;;8.15;100.00
49645;BME280;36494;50.730;-1.932;2023-02-21T05:36:05;101461.30;;;8.10;100.00
49645;BME280;36494;50.730;-1.932;2023-02-21T05:38:30;101461.09;;;8.08;100.00
49645;BME280;36494;50.730;-1.932;2023-02-21T05:40:55;101459.91;;;8.15;100.00
49645;BME280;36494;50.730;-1.932;2023-02-21T05:43:20;101458.44;;;8.06;100.00
49645;BME280;36494;50.730;-1.932;2023-02-21T05:45:46;101453.64;;;8.15;100.00
49645;BME280;36494;50.730;-1.932;2023-02-21T05:48:11;101454.36;;;8.19;100.00
49645;BME280;36494;50.730;-1.932;2023-02-21T05:50:36;101456.38;;;8.19;100.00
49645;BME280;36494;50.730;-1.932;2023-02-21T05:53:02;101449.93;;;8.18;100.00
49645;BME280;36494;50.730;-1.932;2023-02-21T05:55:27;101446.78;;;8.19;100.00
49645;BME280;36494;50.730;-1.932;2023-02-21T05:57:53;101442.06;;;8.20;100.00
49645;BME280;36494;50.730;-1.932;2023-02-21T06:00:20;101446.07;;;8.20;100.00
49645;BME280;36494;50.730;-1.932;2023-02-21T06:02:43;101449.59;;;8.23;100.00
49645;BME280;36494;50.730;-1.932;2023-02-21T06:05:08;101445.08;;;8.21;100.00
49645;BME280;36494;50.730;-1.932;2023-02-21T06:07:33;101444.91;;;8.20;100.00
49645;BME280;36494;50.730;-1.932;2023-02-21T06:09:59;101446.52;;;8.22;100.00
49645;BME280;36494;50.730;-1.932;2023-02-21T06:12:24;101445.94;;;8.24;100.00
49645;BME280;36494;50.730;-1.932;2023-02-21T06:14:49;101444.62;;;8.23;100.00
49645;BME280;36494;50.730;-1.932;2023-02-21T06:17:14;101442.87;;;8.22;100.00
49645;BME280;36494;50.730;-1.932;2023-02-21T06:19:40;101440.89;;;8.23;100.00
49645;BME280;36494;50.730;-1.932;2023-02-21T06:22:05;101441.18;;;8.23;100.00
49645;BME280;36494;50.730;-1.932;2023-02-21T06:24:30;101438.35;;;8.29;100.00
49645;BME280;36494;50.730;-1.932;2023-02-21T06:26:56;101439.00;;;8.28;100.00
49645;BME280;36494;50.730;-1.932;2023-02-21T06:29:21;101433.24;;;8.27;100.00
49645;BME280;36494;50.730;-1.932;2023-02-21T06:31:47;101431.90;;;8.24;100.00
49645;BME280;36494;50.730;-1.932;2023-02-21T06:34:12;101434.27;;;8.19;100.00
49645;BME280;36494;50.730;-1.932;2023-02-21T06:36:38;101437.17;;;8.07;100.00
49645;BME280;36494;50.730;-1.932;2023-02-21T06:39:03;101437.49;;;8.05;100.00
49645;BME280;36494;50.730;-1.932;2023-02-21T06:41:29;101438.85;;;8.06;100.00
49645;BME280;36494;50.730;-1.932;2023-02-21T06:43:55;101436.66;;;8.10;100.00
49645;BME280;36494;50.730;-1.932;2023-02-21T06:46:21;101434.05;;;8.14;100.00
49645;BME280;36494;50.730;-1.932;2023-02-21T06:48:44;101429.00;;;8.19;100.00
49645;BME280;36494;50.730;-1.932;2023-02-21T06:51:10;101427.22;;;8.21;100.00
49645;BME280;36494;50.730;-1.932;2023-02-21T06:53:35;101425.09;;;8.20;100.00
49645;BME280;36494;50.730;-1.932;2023-02-21T06:56:00;101428.41;;;8.20;100.00
49645;BME280;36494;50.730;-1.932;2023-02-21T06:58:26;101427.42;;;8.20;100.00
49645;BME280;36494;50.730;-1.932;2023-02-21T07:00:51;101428.13;;;8.18;100.00
49645;BME280;36494;50.730;-1.932;2023-02-21T07:03:16;101430.56;;;8.18;100.00
49645;BME280;36494;50.730;-1.932;2023-02-21T07:05:41;101429.37;;;8.12;100.00
49645;BME280;36494;50.730;-1.932;2023-02-21T07:08:06;101432.21;;;8.09;100.00
49645;BME280;36494;50.730;-1.932;2023-02-21T07:10:32;101434.19;;;8.05;100.00
49645;BME280;36494;50.730;-1.932;2023-02-21T07:12:57;101430.42;;;8.07;100.00
49645;BME280;36494;50.730;-1.932;2023-02-21T07:15:22;101426.81;;;8.12;100.00
49645;BME280;36494;50.730;-1.932;2023-02-21T07:17:48;101428.05;;;8.11;100.00
49645;BME280;36494;50.730;-1.932;2023-02-21T07:20:13;101425.77;;;8.02;100.00
49645;BME280;36494;50.730;-1.932;2023-02-21T07:22:38;101428.60;;;8.01;100.00
49645;BME280;36494;50.730;-1.932;2023-02-21T07:25:04;101429.45;;;8.07;100.00
49645;BME280;36494;50.730;-1.932;2023-02-21T07:27:29;101431.59;;;8.05;100.00
49645;BME280;36494;50.730;-1.932;2023-02-21T07:29:54;101429.69;;;7.99;100.00
49645;BME280;36494;50.730;-1.932;2023-02-21T07:32:20;101430.61;;;7.92;100.00
49645;BME280;36494;50.730;-1.932;2023-02-21T07:34:45;101432.64;;;7.85;100.00
49645;BME280;36494;50.730;-1.932;2023-02-21T07:37:10;101429.79;;;7.87;100.00
49645;BME280;36494;50.730;-1.932;2023-02-21T07:39:36;101428.85;;;7.85;100.00
49645;BME280;36494;50.730;-1.932;2023-02-21T07:42:01;101427.50;;;7.76;100.00
49645;BME280;36494;50.730;-1.932;2023-02-21T07:44:26;101429.76;;;7.81;100.00
49645;BME280;36494;50.730;-1.932;2023-02-21T07:46:54;101433.61;;;7.73;100.00
49645;BME280;36494;50.730;-1.932;2023-02-21T07:49:17;101432.44;;;7.74;100.00
49645;BME280;36494;50.730;-1.932;2023-02-21T07:51:43;101434.99;;;7.70;100.00
49645;BME280;36494;50.730;-1.932;2023-02-21T07:54:08;101440.72;;;7.68;100.00
49645;BME280;36494;50.730;-1.932;2023-02-21T07:56:33;101447.85;;;7.69;100.00
49645;BME280;36494;50.730;-1.932;2023-02-21T07:58:59;101449.11;;;7.75;100.00
49645;BME280;36494;50.730;-1.932;2023-02-21T08:01:25;101450.75;;;7.67;100.00
49645;BME280;36494;50.730;-1.932;2023-02-21T08:03:49;101455.17;;;7.61;100.00
49645;BME280;36494;50.730;-1.932;2023-02-21T08:06:15;101451.64;;;7.63;100.00
49645;BME280;36494;50.730;-1.932;2023-02-21T08:08:40;101449.67;;;7.67;100.00
49645;BME280;36494;50.730;-1.932;2023-02-21T08:11:06;101446.87;;;7.71;100.00
49645;BME280;36494;50.730;-1.932;2023-02-21T08:13:31;101448.18;;;7.53;100.00
49645;BME280;36494;50.730;-1.932;2023-02-21T08:15:56;101447.08;;;7.56;100.00
49645;BME280;36494;50.730;-1.932;2023-02-21T08:18:23;101444.24;;;7.53;100.00
49645;BME280;36494;50.730;-1.932;2023-02-21T08:20:47;101443.51;;;7.55;100.00
49645;BME280;36494;50.730;-1.932;2023-02-21T08:23:12;101443.17;;;7.54;100.00
49645;BME280;36494;50.730;-1.932;2023-02-21T08:25:38;101444.80;;;7.49;100.00
49645;BME280;36494;50.730;-1.932;2023-02-21T08:28:03;101441.88;;;7.40;100.00
49645;BME280;36494;50.730;-1.932;2023-02-21T08:30:29;101443.24;;;7.41;100.00
49645;BME280;36494;50.730;-1.932;2023-02-21T08:32:54;101438.19;;;7.39;100.00
49645;BME280;36494;50.730;-1.932;2023-02-21T08:35:20;101436.58;;;7.25;100.00
49645;BME280;36494;50.730;-1.932;2023-02-21T08:37:46;101440.56;;;7.32;100.00
49645;BME280;36494;50.730;-1.932;2023-02-21T08:40:11;101439.46;;;7.39;100.00
49645;BME280;36494;50.730;-1.932;2023-02-21T08:42:35;101438.60;;;7.41;100.00
49645;BME280;36494;50.730;-1.932;2023-02-21T08:45:01;101435.14;;;7.35;100.00
49645;BME280;36494;50.730;-1.932;2023-02-21T08:47:26;101436.59;;;7.42;100.00
49645;BME280;36494;50.730;-1.932;2023-02-21T08:49:52;101434.23;;;7.46;100.00
49645;BME280;36494;50.730;-1.932;2023-02-21T08:52:18;101428.86;;;7.30;100.00
49645;BME280;36494;50.730;-1.932;2023-02-21T08:54:43;101429.70;;;7.30;100.00
49645;BME280;36494;50.730;-1.932;2023-02-21T08:57:08;101425.41;;;7.24;100.00
49645;BME280;36494;50.730;-1.932;2023-02-21T08:59:33;101428.88;;;7.32;100.00
49645;BME280;36494;50.730;-1.932;2023-02-21T09:01:59;101431.01;;;7.45;100.00
49645;BME280;36494;50.730;-1.932;2023-02-21T09:04:24;101429.98;;;7.40;100.00
49645;BME280;36494;50.730;-1.932;2023-02-21T09:06:50;101427.19;;;7.41;100.00
49645;BME280;36494;50.730;-1.932;2023-02-21T09:09:15;101425.75;;;7.35;100.00
49645;BME280;36494;50.730;-1.932;2023-02-21T09:11:40;101423.04;;;7.27;100.00
49645;BME280;36494;50.730;-1.932;2023-02-21T09:14:05;101421.17;;;7.29;100.00
49645;BME280;36494;50.730;-1.932;2023-02-21T09:16:31;101419.42;;;7.19;100.00
49645;BME280;36494;50.730;-1.932;2023-02-21T09:18:57;101420.22;;;7.19;100.00
49645;BME280;36494;50.730;-1.932;2023-02-21T09:21:22;101417.02;;;7.16;100.00
49645;BME280;36494;50.730;-1.932;2023-02-21T09:23:47;101415.97;;;7.29;100.00
49645;BME280;36494;50.730;-1.932;2023-02-21T09:26:12;101411.10;;;7.22;100.00
49645;BME280;36494;50.730;-1.932;2023-02-21T09:28:38;101413.80;;;7.36;100.00
49645;BME280;36494;50.730;-1.932;2023-02-21T09:31:03;101411.12;;;7.32;100.00
49645;BME280;36494;50.730;-1.932;2023-02-21T09:33:28;101409.80;;;7.30;100.00
49645;BME280;36494;50.730;-1.932;2023-02-21T09:35:54;101410.98;;;7.38;100.00
49645;BME280;36494;50.730;-1.932;2023-02-21T09:38:19;101411.81;;;7.47;100.00
49645;BME280;36494;50.730;-1.932;2023-02-21T09:40:47;101408.99;;;7.34;100.00
49645;BME280;36494;50.730;-1.932;2023-02-21T09:43:14;101407.36;;;7.32;100.00
49645;BME280;36494;50.730;-1.932;2023-02-21T09:45:36;101403.42;;;7.33;100.00
49645;BME280;36494;50.730;-1.932;2023-02-21T09:48:05;101405.97;;;7.44;100.00
49645;BME280;36494;50.730;-1.932;2023-02-21T09:50:28;101406.05;;;7.52;100.00
49645;BME280;36494;50.730;-1.932;2023-02-21T09:52:51;101405.16;;;7.38;100.00
49645;BME280;36494;50.730;-1.932;2023-02-21T09:55:22;101406.52;;;7.49;100.00
49645;BME280;36494;50.730;-1.932;2023-02-21T09:57:42;101409.23;;;7.51;100.00
49645;BME280;36494;50.730;-1.932;2023-02-21T10:00:15;101408.55;;;7.49;100.00
49645;BME280;36494;50.730;-1.932;2023-02-21T10:02:42;101402.20;;;7.62;100.00
49645;BME280;36494;50.730;-1.932;2023-02-21T10:05:03;101400.64;;;7.41;100.00
49645;BME280;36494;50.730;-1.932;2023-02-21T10:07:33;101398.53;;;7.55;100.00
49645;BME280;36494;50.730;-1.932;2023-02-21T10:09:53;101394.43;;;7.57;100.00
49645;BME280;36494;50.730;-1.932;2023-02-21T10:12:21;101390.89;;;7.51;100.00
49645;BME280;36494;50.730;-1.932;2023-02-21T10:14:53;101389.85;;;7.53;100.00
49645;BME280;36494;50.730;-1.932;2023-02-21T10:17:12;101388.70;;;7.66;100.00
49645;BME280;36494;50.730;-1.932;2023-02-21T10:19:32;101394.47;;;7.54;100.00
49645;BME280;36494;50.730;-1.932;2023-02-21T10:21:57;101394.22;;;7.61;100.00
49645;BME280;36494;50.730;-1.932;2023-02-21T10:24:22;101393.34;;;7.60;100.00
49645;BME280;36494;50.730;-1.932;2023-02-21T10:26:52;101393.96;;;7.55;100.00
49645;BME280;36494;50.730;-1.932;2023-02-21T10:29:19;101392.93;;;7.50;100.00
49645;BME280;36494;50.730;-1.932;2023-02-21T10:31:38;101390.29;;;7.65;100.00
49645;BME280;36494;50.730;-1.932;2023-02-21T10:34:05;101386.43;;;7.58;100.00
49645;BME280;36494;50.730;-1.932;2023-02-21T10:36:28;101385.54;;;7.67;100.00
49645;BME280;36494;50.730;-1.932;2023-02-21T10:38:55;101384.46;;;7.60;100.00
49645;BME280;36494;50.730;-1.932;2023-02-21T10:41:18;101384.08;;;7.59;100.00
49645;BME280;36494;50.730;-1.932;2023-02-21T10:43:46;101381.45;;;7.61;100.00
49645;BME280;36494;50.730;-1.932;2023-02-21T10:46:14;101381.51;;;7.75;100.00
49645;BME280;36494;50.730;-1.932;2023-02-21T10:48:37;101378.87;;;7.67;100.00
49645;BME280;36494;50.730;-1.932;2023-02-21T10:51:06;101377.62;;;7.72;100.00
49645;BME280;36494;50.730;-1.932;2023-02-21T10:53:28;101380.35;;;7.53;100.00
49645;BME280;36494;50.730;-1.932;2023-02-21T10:58:22;101378.08;;;7.61;100.00
49645;BME280;36494;50.730;-1.932;2023-02-21T11:00:43;101384.60;;;7.45;100.00
49645;BME280;36494;50.730;-1.932;2023-02-21T11:03:14;101382.98;;;7.15;100.00
49645;BME280;36494;50.730;-1.932;2023-02-21T11:05:34;101385.38;;;7.46;100.00
49645;BME280;36494;50.730;-1.932;2023-02-21T11:08:00;101384.17;;;7.45;100.00
49645;BME280;36494;50.730;-1.932;2023-02-21T11:10:29;101380.42;;;7.27;100.00
49645;BME280;36494;50.730;-1.932;2023-02-21T11:15:16;101377.24;;;7.22;100.00
49645;BME280;36494;50.730;-1.932;2023-02-21T11:17:41;101372.65;;;7.27;100.00
49645;BME280;36494;50.730;-1.932;2023-02-21T11:20:15;101368.82;;;7.54;100.00
49645;BME280;36494;50.730;-1.932;2023-02-21T11:22:36;101363.22;;;7.57;100.00
49645;BME280;36494;50.730;-1.932;2023-02-21T11:24:59;101367.19;;;7.55;100.00
49645;BME280;36494;50.730;-1.932;2023-02-21T11:27:21;101364.22;;;7.55;100.00
49645;BME280;36494;50.730;-1.932;2023-02-21T11:29:48;101364.38;;;7.30;100.00
49645;BME280;36494;50.730;-1.932;2023-02-21T11:32:22;101363.13;;;7.37;100.00
49645;BME280;36494;50.730;-1.932;2023-02-21T11:34:37;101359.19;;;7.29;100.00
49645;BME280;36494;50.730;-1.932;2023-02-21T11:37:03;101356.36;;;7.22;100.00
49645;BME280;36494;50.730;-1.932;2023-02-21T11:39:31;101349.86;;;7.08;100.00
49645;BME280;36494;50.730;-1.932;2023-02-21T11:41:54;101345.73;;;7.17;100.00
49645;BME280;36494;50.730;-1.932;2023-02-21T11:44:24;101339.12;;;7.25;100.00
49645;BME280;36494;50.730;-1.932;2023-02-21T11:46:45;101338.59;;;7.28;100.00
49645;BME280;36494;50.730;-1.932;2023-02-21T11:49:16;101335.71;;;7.15;100.00
49645;BME280;36494;50.730;-1.932;2023-02-21T11:51:40;101329.56;;;7.20;100.00
49645;BME280;36494;50.730;-1.932;2023-02-21T11:53:59;101330.60;;;7.15;100.00
49645;BME280;36494;50.730;-1.932;2023-02-21T11:56:34;101333.43;;;7.28;100.00
49645;BME280;36494;50.730;-1.932;2023-02-21T11:58:57;101333.63;;;7.17;100.00
49645;BME280;36494;50.730;-1.932;2023-02-21T12:01:23;101333.11;;;7.14;100.00
49645;BME280;36494;50.730;-1.932;2023-02-21T12:03:54;101329.15;;;7.18;100.00
49645;BME280;36494;50.730;-1.932;2023-02-21T12:06:12;101326.27;;;7.19;100.00
49645;BME280;36494;50.730;-1.932;2023-02-21T12:08:38;101319.94;;;7.27;100.00
49645;BME280;36494;50.730;-1.932;2023-02-21T12:11:04;101317.93;;;7.34;100.00
49645;BME280;36494;50.730;-1.932;2023-02-21T12:13:30;101316.03;;;7.28;100.00
49645;BME280;36494;50.730;-1.932;2023-02-21T12:15:56;101308.65;;;7.31;100.00
49645;BME280;36494;50.730;-1.932;2023-02-21T12:18:27;101302.68;;;7.22;100.00
49645;BME280;36494;50.730;-1.932;2023-02-21T12:20:53;101301.45;;;7.31;100.00
49645;BME280;36494;50.730;-1.932;2023-02-21T12:23:12;101295.29;;;7.31;100.00
49645;BME280;36494;50.730;-1.932;2023-02-21T12:25:38;101292.88;;;7.22;100.00
49645;BME280;36494;50.730;-1.932;2023-02-21T12:28:03;101292.06;;;7.11;100.00
49645;BME280;36494;50.730;-1.932;2023-02-21T12:30:33;101288.82;;;7.36;100.00
49645;BME280;36494;50.730;-1.932;2023-02-21T12:32:49;101285.72;;;7.47;100.00
49645;BME280;36494;50.730;-1.932;2023-02-21T12:37:44;101280.11;;;7.54;100.00
49645;BME280;36494;50.730;-1.932;2023-02-21T12:40:14;101278.49;;;7.37;100.00
49645;BME280;36494;50.730;-1.932;2023-02-21T12:42:43;101280.78;;;7.49;100.00